Airfield :
LOGIN :

Register | Disclaimer

   EN    FR    IT 

 










Legend :    VFR   Marginal VFR   IFR   Intensive IFR   Very Intensive IFR
Visi :
Ceiling :
>= 8 km
>= 3000ft
5 to 8 km
1000 to 3000 ft
1500m to 5 km
500 to 1000 ft
800 to 1500m
200 to 500 ft
< 800m
< 200 ft
Symbols :   Thunderstorms  Fog  Heavy snow  Heavy precipitations  Wind > 20 kt
SIGMETs :     Misc.  Thunderstorms  Icing  Turbulence  Mountain Waves  Volcanic Ashes






- Airport Elevation : 289 ft
- IATA code : ZAD


LDZD - Zadar

CURRENT METAR :
  • 200100Z VRB02KT CAVOK 05/02 Q1009

EXPIRED METARs :
  • 200030Z 10003KT CAVOK 05/03 Q1009
  • 200000Z 00000KT CAVOK 05/03 Q1009
  • 192330Z VRB02KT CAVOK 05/03 Q1010
  • 192300Z 13004KT 030V150 CAVOK 05/02 Q1010
  • 192230Z 13002KT CAVOK 04/02 Q1010
  • 192200Z 11005KT CAVOK 04/01 Q1010
  • 192130Z 31003KT CAVOK 05/02 Q1010 NOSIG
  • 192100Z 30005KT CAVOK 06/02 Q1011 NOSIG
  • 192030Z 30005KT CAVOK 06/02 Q1011 NOSIG

TAF TAF LDZD
Valid from the 20 at 00:00 until the 21 at 00:00 UTC


192325Z 2000/2100 VRB02KT CAVOK TX14/2010Z TN03/2001Z
TEMPO 2004/2010 14006KT
TEMPO 2009/2019 RA
BECMG 2009/2011 06012KT
PROB30
TEMPO 2010/2015 33012KT 4000 SHRA SCT025TCU BKN030



MET'MAP, your aeronautical weather chart ! - Copyright ORBIFLY December 2007 - Disclaimer

ORBIFLY MET'MAP TEAM :

Programming & Development : Alexandra Zaïnal
Original concept : Baudouin d'Aumeries
Technical & hardware support : Manuel Goepfert
Assistance : Marc-Olivier Méhu




SOURCES & CREDITS :

   NOAA